Farnham, New York
Current Conditions -  °F | °C
As of 11:53 AM on Saturday 20 Dec 2014 (Local Time) from KDKK Reporting Station
Overcast Overcast  
Wind Chill: 23°   Ceiling: 1800
Heat Index: 30°   Visibility: 10mi
Dew Point: 23°   Wind: 7mph
Humidity: 75%   Direction: 290°WNW
Pressure: 30.27"   Gusts: NA
Location:  42.59°N, 79.09°W
Report Text: KDKK 201653Z AUTO 29006KT 10SM OVC018 M01/M05 A3027 RMK AO2 SLP259 T10111050 $
Loading
Personal Weather Stations






























Interactive Weather Map New forecast layout! Learn more

10-Day Weather Forecast

Advertisements
Track Severe Weather on mobile